sensor_id;sensor_type;location;lat;lon;timestamp;pressure;altitude;pressure_sealevel;temperature;humidity
5883;BME280;2967;51.488;6.618;2023-07-20T00:04:58;101102.22;;;19.04;100.00
5883;BME280;2967;51.488;6.618;2023-07-20T00:10:21;101103.34;;;19.11;100.00
5883;BME280;2967;51.488;6.618;2023-07-20T00:15:44;101096.19;;;19.02;100.00
5883;BME280;2967;51.488;6.618;2023-07-20T00:21:09;101103.34;;;19.11;100.00
5883;BME280;2967;51.488;6.618;2023-07-20T00:26:32;101096.81;;;19.13;100.00
5883;BME280;2967;51.488;6.618;2023-07-20T00:31:55;101093.31;;;19.13;100.00
5883;BME280;2967;51.488;6.618;2023-07-20T00:37:19;101090.22;;;19.08;100.00
5883;BME280;2967;51.488;6.618;2023-07-20T00:42:42;101085.44;;;19.02;100.00
5883;BME280;2967;51.488;6.618;2023-07-20T00:48:06;101091.16;;;18.80;100.00
5883;BME280;2967;51.488;6.618;2023-07-20T00:53:32;101086.63;;;18.90;100.00
5883;BME280;2967;51.488;6.618;2023-07-20T00:58:55;101082.09;;;18.90;100.00
5883;BME280;2967;51.488;6.618;2023-07-20T01:04:19;101083.50;;;18.85;100.00
5883;BME280;2967;51.488;6.618;2023-07-20T01:09:48;101083.28;;;18.69;100.00
5883;BME280;2967;51.488;6.618;2023-07-20T01:15:15;101073.66;;;18.85;100.00
5883;BME280;2967;51.488;6.618;2023-07-20T01:20:38;101087.34;;;18.73;100.00
5883;BME280;2967;51.488;6.618;2023-07-20T01:26:32;101089.59;;;18.68;100.00
5883;BME280;2967;51.488;6.618;2023-07-20T01:32:01;101084.25;;;18.68;100.00
5883;BME280;2967;51.488;6.618;2023-07-20T01:37:26;101084.25;;;18.77;100.00
5883;BME280;2967;51.488;6.618;2023-07-20T01:42:52;101074.50;;;18.67;100.00
5883;BME280;2967;51.488;6.618;2023-07-20T01:48:16;101078.19;;;18.66;100.00
5883;BME280;2967;51.488;6.618;2023-07-20T01:53:39;101075.66;;;18.65;100.00
5883;BME280;2967;51.488;6.618;2023-07-20T01:59:02;101082.44;;;18.59;100.00
5883;BME280;2967;51.488;6.618;2023-07-20T02:04:27;101094.13;;;18.58;100.00
5883;BME280;2967;51.488;6.618;2023-07-20T02:09:50;101098.38;;;18.61;100.00
5883;BME280;2967;51.488;6.618;2023-07-20T02:15:13;101090.34;;;18.51;100.00
5883;BME280;2967;51.488;6.618;2023-07-20T02:20:40;101088.22;;;18.45;100.00
5883;BME280;2967;51.488;6.618;2023-07-20T02:26:03;101099.06;;;18.44;100.00
5883;BME280;2967;51.488;6.618;2023-07-20T02:31:26;101093.88;;;18.42;100.00
5883;BME280;2967;51.488;6.618;2023-07-20T02:36:50;101086.50;;;18.25;100.00
5883;BME280;2967;51.488;6.618;2023-07-20T02:42:14;101094.72;;;18.33;100.00
5883;BME280;2967;51.488;6.618;2023-07-20T02:47:37;101091.47;;;18.30;100.00
5883;BME280;2967;51.488;6.618;2023-07-20T02:53:02;101098.75;;;18.09;100.00
5883;BME280;2967;51.488;6.618;2023-07-20T02:58:25;101090.44;;;18.02;100.00
5883;BME280;2967;51.488;6.618;2023-07-20T03:03:48;101100.59;;;18.18;100.00
5883;BME280;2967;51.488;6.618;2023-07-20T03:09:12;101113.75;;;18.30;100.00
5883;BME280;2967;51.488;6.618;2023-07-20T03:14:37;101107.81;;;18.27;100.00
5883;BME280;2967;51.488;6.618;2023-07-20T03:20:01;101106.72;;;18.29;100.00
5883;BME280;2967;51.488;6.618;2023-07-20T03:25:26;101107.22;;;18.23;100.00
5883;BME280;2967;51.488;6.618;2023-07-20T03:30:53;101120.63;;;18.23;100.00
5883;BME280;2967;51.488;6.618;2023-07-20T03:36:16;101115.38;;;18.22;100.00
5883;BME280;2967;51.488;6.618;2023-07-20T03:41:41;101122.59;;;18.21;100.00
5883;BME280;2967;51.488;6.618;2023-07-20T03:47:05;101133.31;;;18.21;100.00
5883;BME280;2967;51.488;6.618;2023-07-20T03:52:28;101133.31;;;18.21;100.00
5883;BME280;2967;51.488;6.618;2023-07-20T03:57:53;101127.09;;;18.11;100.00
5883;BME280;2967;51.488;6.618;2023-07-20T04:03:16;101126.66;;;17.97;100.00
5883;BME280;2967;51.488;6.618;2023-07-20T04:08:39;101132.81;;;17.88;100.00
5883;BME280;2967;51.488;6.618;2023-07-20T04:14:04;101144.47;;;17.77;100.00
5883;BME280;2967;51.488;6.618;2023-07-20T04:19:27;101139.50;;;17.63;100.00
5883;BME280;2967;51.488;6.618;2023-07-20T04:24:49;101138.00;;;17.70;100.00
5883;BME280;2967;51.488;6.618;2023-07-20T04:30:17;101151.09;;;17.73;100.00
5883;BME280;2967;51.488;6.618;2023-07-20T04:35:46;101151.16;;;17.92;100.00
5883;BME280;2967;51.488;6.618;2023-07-20T04:41:12;101147.03;;;17.88;100.00
5883;BME280;2967;51.488;6.618;2023-07-20T04:46:39;101153.66;;;17.94;100.00
5883;BME280;2967;51.488;6.618;2023-07-20T04:52:07;101167.34;;;17.91;100.00
5883;BME280;2967;51.488;6.618;2023-07-20T04:57:31;101172.66;;;17.81;100.00
5883;BME280;2967;51.488;6.618;2023-07-20T05:02:56;101170.28;;;17.88;100.00
5883;BME280;2967;51.488;6.618;2023-07-20T05:08:19;101172.22;;;17.76;100.00
5883;BME280;2967;51.488;6.618;2023-07-20T05:13:44;101167.16;;;17.73;100.00
5883;BME280;2967;51.488;6.618;2023-07-20T05:19:08;101184.22;;;17.82;100.00
5883;BME280;2967;51.488;6.618;2023-07-20T05:24:31;101178.84;;;17.72;100.00
5883;BME280;2967;51.488;6.618;2023-07-20T05:29:54;101183.63;;;17.78;100.00
5883;BME280;2967;51.488;6.618;2023-07-20T05:35:19;101183.81;;;17.86;100.00
5883;BME280;2967;51.488;6.618;2023-07-20T05:40:42;101185.91;;;17.83;100.00
5883;BME280;2967;51.488;6.618;2023-07-20T05:46:05;101199.63;;;17.89;100.00
5883;BME280;2967;51.488;6.618;2023-07-20T05:51:29;101202.53;;;17.86;100.00
5883;BME280;2967;51.488;6.618;2023-07-20T05:56:54;101202.00;;;17.92;100.00
5883;BME280;2967;51.488;6.618;2023-07-20T06:02:17;101194.44;;;18.07;100.00
5883;BME280;2967;51.488;6.618;2023-07-20T06:07:42;101205.03;;;18.27;100.00
5883;BME280;2967;51.488;6.618;2023-07-20T06:13:05;101211.50;;;18.55;100.00
5883;BME280;2967;51.488;6.618;2023-07-20T06:18:28;101220.38;;;18.65;100.00
5883;BME280;2967;51.488;6.618;2023-07-20T06:23:53;101205.13;;;18.56;100.00
5883;BME280;2967;51.488;6.618;2023-07-20T06:29:16;101218.97;;;18.70;100.00
5883;BME280;2967;51.488;6.618;2023-07-20T06:34:39;101221.22;;;18.84;100.00
5883;BME280;2967;51.488;6.618;2023-07-20T06:40:04;101230.81;;;18.96;100.00
5883;BME280;2967;51.488;6.618;2023-07-20T06:45:31;101224.44;;;18.97;100.00
5883;BME280;2967;51.488;6.618;2023-07-20T06:50:54;101224.28;;;19.08;100.00
5883;BME280;2967;51.488;6.618;2023-07-20T06:56:18;101230.25;;;19.02;100.00
5883;BME280;2967;51.488;6.618;2023-07-20T07:01:45;101225.03;;;18.72;100.00
5883;BME280;2967;51.488;6.618;2023-07-20T07:07:08;101220.34;;;18.46;100.00
5883;BME280;2967;51.488;6.618;2023-07-20T07:12:33;101235.69;;;18.44;100.00
5883;BME280;2967;51.488;6.618;2023-07-20T07:17:57;101244.22;;;18.28;100.00
5883;BME280;2967;51.488;6.618;2023-07-20T07:23:21;101247.19;;;18.25;100.00
5883;BME280;2967;51.488;6.618;2023-07-20T07:28:45;101246.88;;;18.09;100.00
5883;BME280;2967;51.488;6.618;2023-07-20T07:34:08;101256.22;;;18.24;100.00
5883;BME280;2967;51.488;6.618;2023-07-20T07:39:31;101261.66;;;18.43;100.00
5883;BME280;2967;51.488;6.618;2023-07-20T07:44:58;101266.34;;;18.70;100.00
5883;BME280;2967;51.488;6.618;2023-07-20T07:50:21;101268.63;;;18.74;100.00
5883;BME280;2967;51.488;6.618;2023-07-20T07:55:43;101273.53;;;18.60;100.00
5883;BME280;2967;51.488;6.618;2023-07-20T08:01:08;101276.91;;;18.52;100.00
5883;BME280;2967;51.488;6.618;2023-07-20T08:06:31;101275.09;;;18.72;100.00
5883;BME280;2967;51.488;6.618;2023-07-20T08:11:54;101283.28;;;18.70;100.00
5883;BME280;2967;51.488;6.618;2023-07-20T08:17:19;101291.22;;;19.00;100.00
5883;BME280;2967;51.488;6.618;2023-07-20T08:22:42;101289.84;;;19.24;100.00
5883;BME280;2967;51.488;6.618;2023-07-20T08:28:09;101220.75;;;19.17;100.00
5883;BME280;2967;51.488;6.618;2023-07-20T08:33:34;101299.06;;;19.77;100.00
5883;BME280;2967;51.488;6.618;2023-07-20T08:38:57;101297.34;;;19.86;100.00
5883;BME280;2967;51.488;6.618;2023-07-20T08:44:20;101305.81;;;19.91;100.00
5883;BME280;2967;51.488;6.618;2023-07-20T08:49:47;101298.69;;;20.09;100.00
5883;BME280;2967;51.488;6.618;2023-07-20T08:55:12;101298.09;;;20.24;100.00
5883;BME280;2967;51.488;6.618;2023-07-20T09:00:36;101299.41;;;20.38;100.00
5883;BME280;2967;51.488;6.618;2023-07-20T09:06:00;101293.84;;;20.22;100.00
5883;BME280;2967;51.488;6.618;2023-07-20T09:11:23;101303.19;;;19.72;100.00
5883;BME280;2967;51.488;6.618;2023-07-20T09:16:47;101284.44;;;19.43;100.00
5883;BME280;2967;51.488;6.618;2023-07-20T09:22:13;101298.50;;;19.74;100.00
5883;BME280;2967;51.488;6.618;2023-07-20T09:27:37;101290.25;;;20.04;100.00
5883;BME280;2967;51.488;6.618;2023-07-20T09:33:00;101293.75;;;20.41;100.00
5883;BME280;2967;51.488;6.618;2023-07-20T09:38:26;101293.66;;;20.60;100.00
5883;BME280;2967;51.488;6.618;2023-07-20T09:43:50;101292.16;;;20.48;100.00
5883;BME280;2967;51.488;6.618;2023-07-20T09:49:14;101288.41;;;20.58;100.00
5883;BME280;2967;51.488;6.618;2023-07-20T09:54:44;101286.88;;;20.56;100.00
5883;BME280;2967;51.488;6.618;2023-07-20T10:00:08;101239.78;;;20.52;100.00
5883;BME280;2967;51.488;6.618;2023-07-20T10:05:40;101269.25;;;20.71;100.00
5883;BME280;2967;51.488;6.618;2023-07-20T10:11:08;101283.59;;;20.62;100.00
5883;BME280;2967;51.488;6.618;2023-07-20T10:16:35;101272.69;;;20.81;96.25
5883;BME280;2967;51.488;6.618;2023-07-20T10:22:03;101271.69;;;20.82;97.31
5883;BME280;2967;51.488;6.618;2023-07-20T10:27:32;101275.78;;;21.03;96.56
5883;BME280;2967;51.488;6.618;2023-07-20T10:32:55;101271.78;;;21.25;91.74
5883;BME280;2967;51.488;6.618;2023-07-20T10:38:19;101275.16;;;21.27;90.17
5883;BME280;2967;51.488;6.618;2023-07-20T10:43:43;101269.94;;;21.08;87.38
5883;BME280;2967;51.488;6.618;2023-07-20T10:49:08;101255.28;;;21.20;89.53
5883;BME280;2967;51.488;6.618;2023-07-20T10:54:46;101253.22;;;21.39;88.11
5883;BME280;2967;51.488;6.618;2023-07-20T11:00:13;101249.50;;;21.58;92.26
5883;BME280;2967;51.488;6.618;2023-07-20T11:05:38;101244.84;;;21.42;91.98
5883;BME280;2967;51.488;6.618;2023-07-20T11:11:21;101229.69;;;21.41;92.84
5883;BME280;2967;51.488;6.618;2023-07-20T11:16:48;101245.88;;;21.67;90.51
5883;BME280;2967;51.488;6.618;2023-07-20T11:22:12;101219.97;;;21.66;86.98
5883;BME280;2967;51.488;6.618;2023-07-20T11:27:44;101223.00;;;21.96;87.17
5883;BME280;2967;51.488;6.618;2023-07-20T11:33:09;101222.19;;;22.03;81.14
5883;BME280;2967;51.488;6.618;2023-07-20T11:38:32;101215.97;;;22.11;81.13
5883;BME280;2967;51.488;6.618;2023-07-20T11:43:57;101218.13;;;22.41;78.01
5883;BME280;2967;51.488;6.618;2023-07-20T11:49:24;101213.28;;;22.52;82.60
5883;BME280;2967;51.488;6.618;2023-07-20T11:54:49;101215.78;;;22.46;82.43
5883;BME280;2967;51.488;6.618;2023-07-20T12:00:12;101210.03;;;22.41;84.50
5883;BME280;2967;51.488;6.618;2023-07-20T12:05:39;101204.91;;;22.30;84.74
5883;BME280;2967;51.488;6.618;2023-07-20T12:11:05;101206.03;;;22.19;83.69
5883;BME280;2967;51.488;6.618;2023-07-20T12:16:28;101198.53;;;22.31;85.60
5883;BME280;2967;51.488;6.618;2023-07-20T12:21:57;101195.78;;;22.72;79.75
5883;BME280;2967;51.488;6.618;2023-07-20T12:27:21;101194.94;;;22.96;76.30
5883;BME280;2967;51.488;6.618;2023-07-20T12:32:44;101198.16;;;22.83;78.58
5883;BME280;2967;51.488;6.618;2023-07-20T12:38:08;101198.81;;;22.61;77.48
5883;BME280;2967;51.488;6.618;2023-07-20T12:43:31;101193.88;;;22.49;81.41
5883;BME280;2967;51.488;6.618;2023-07-20T12:48:55;101188.41;;;22.33;81.83
5883;BME280;2967;51.488;6.618;2023-07-20T12:54:20;101181.50;;;22.38;83.08
5883;BME280;2967;51.488;6.618;2023-07-20T12:59:42;101189.69;;;22.78;82.34
5883;BME280;2967;51.488;6.618;2023-07-20T13:05:06;101182.63;;;23.17;81.76
5883;BME280;2967;51.488;6.618;2023-07-20T13:10:32;101180.28;;;23.14;82.04
5883;BME280;2967;51.488;6.618;2023-07-20T13:15:57;101177.91;;;23.03;82.86
5883;BME280;2967;51.488;6.618;2023-07-20T13:21:20;101166.94;;;22.97;80.62
5883;BME280;2967;51.488;6.618;2023-07-20T13:26:47;101164.03;;;23.38;81.17
5883;BME280;2967;51.488;6.618;2023-07-20T13:32:10;101183.94;;;23.45;77.89
5883;BME280;2967;51.488;6.618;2023-07-20T13:37:33;101172.63;;;23.58;77.58
5883;BME280;2967;51.488;6.618;2023-07-20T13:42:57;101170.69;;;23.74;77.56
5883;BME280;2967;51.488;6.618;2023-07-20T13:48:21;101166.72;;;23.54;75.31
5883;BME280;2967;51.488;6.618;2023-07-20T13:53:48;101160.31;;;23.39;76.10
5883;BME280;2967;51.488;6.618;2023-07-20T13:59:14;101159.38;;;23.00;73.20
5883;BME280;2967;51.488;6.618;2023-07-20T14:04:37;101146.53;;;22.94;80.64
5883;BME280;2967;51.488;6.618;2023-07-20T14:10:00;101135.75;;;22.86;77.64
5883;BME280;2967;51.488;6.618;2023-07-20T14:15:28;101137.09;;;22.82;75.33
5883;BME280;2967;51.488;6.618;2023-07-20T14:20:51;101134.47;;;23.53;75.88
5883;BME280;2967;51.488;6.618;2023-07-20T14:26:14;101133.00;;;24.19;73.66
5883;BME280;2967;51.488;6.618;2023-07-20T14:31:38;101130.75;;;24.31;70.52
5883;BME280;2967;51.488;6.618;2023-07-20T14:37:01;101125.03;;;23.95;69.50
5883;BME280;2967;51.488;6.618;2023-07-20T14:42:26;101117.31;;;23.84;75.60
5883;BME280;2967;51.488;6.618;2023-07-20T14:47:50;101117.34;;;23.68;74.34
5883;BME280;2967;51.488;6.618;2023-07-20T14:53:16;101100.41;;;23.44;72.23
5883;BME280;2967;51.488;6.618;2023-07-20T14:58:40;101120.16;;;23.44;74.16
5883;BME280;2967;51.488;6.618;2023-07-20T15:04:04;101116.03;;;23.64;75.35
5883;BME280;2967;51.488;6.618;2023-07-20T15:09:27;101107.88;;;23.80;71.92
5883;BME280;2967;51.488;6.618;2023-07-20T15:15:02;101095.97;;;23.97;69.74
5883;BME280;2967;51.488;6.618;2023-07-20T15:20:27;101095.84;;;23.91;73.03
5883;BME280;2967;51.488;6.618;2023-07-20T15:25:53;101090.16;;;23.70;68.82
5883;BME280;2967;51.488;6.618;2023-07-20T15:31:16;101083.38;;;23.43;68.09
5883;BME280;2967;51.488;6.618;2023-07-20T15:36:41;101084.06;;;23.37;71.43
5883;BME280;2967;51.488;6.618;2023-07-20T15:42:05;101082.59;;;23.27;71.66
5883;BME280;2967;51.488;6.618;2023-07-20T15:47:28;101065.25;;;23.13;69.54
5883;BME280;2967;51.488;6.618;2023-07-20T15:52:53;101067.75;;;23.07;71.41
5883;BME280;2967;51.488;6.618;2023-07-20T15:58:19;101057.78;;;23.07;71.42
5883;BME280;2967;51.488;6.618;2023-07-20T16:03:42;101060.34;;;23.01;70.95
5883;BME280;2967;51.488;6.618;2023-07-20T16:09:06;101051.94;;;22.96;70.45
5883;BME280;2967;51.488;6.618;2023-07-20T16:14:30;101044.69;;;22.88;70.99
5883;BME280;2967;51.488;6.618;2023-07-20T16:20:12;101043.84;;;22.80;74.33
5883;BME280;2967;51.488;6.618;2023-07-20T16:25:37;101037.81;;;22.70;72.90
5883;BME280;2967;51.488;6.618;2023-07-20T16:31:00;101039.50;;;22.63;75.45
5883;BME280;2967;51.488;6.618;2023-07-20T16:36:23;101026.03;;;22.55;76.49
5883;BME280;2967;51.488;6.618;2023-07-20T16:41:47;101032.25;;;22.55;74.11
5883;BME280;2967;51.488;6.618;2023-07-20T16:47:13;101024.50;;;22.52;77.98
5883;BME280;2967;51.488;6.618;2023-07-20T16:52:36;101028.88;;;22.53;74.08
5883;BME280;2967;51.488;6.618;2023-07-20T16:58:00;101021.81;;;22.52;69.91
5883;BME280;2967;51.488;6.618;2023-07-20T17:03:23;101017.75;;;22.56;72.30
5883;BME280;2967;51.488;6.618;2023-07-20T17:08:46;101005.44;;;22.54;72.32
5883;BME280;2967;51.488;6.618;2023-07-20T17:14:11;100986.72;;;22.36;73.13
5883;BME280;2967;51.488;6.618;2023-07-20T17:19:34;101005.44;;;22.38;74.96
5883;BME280;2967;51.488;6.618;2023-07-20T17:24:58;101004.28;;;22.32;77.56
5883;BME280;2967;51.488;6.618;2023-07-20T17:30:25;101000.56;;;22.25;79.00
5883;BME280;2967;51.488;6.618;2023-07-20T17:35:50;100999.19;;;22.05;81.31
5883;BME280;2967;51.488;6.618;2023-07-20T17:41:13;100996.00;;;22.02;80.89
5883;BME280;2967;51.488;6.618;2023-07-20T17:46:38;100984.72;;;21.98;80.57
5883;BME280;2967;51.488;6.618;2023-07-20T17:52:04;100983.00;;;21.89;80.59
5883;BME280;2967;51.488;6.618;2023-07-20T17:57:28;100994.13;;;21.86;80.06
5883;BME280;2967;51.488;6.618;2023-07-20T18:02:52;100996.66;;;21.80;81.90
5883;BME280;2967;51.488;6.618;2023-07-20T18:08:15;100991.44;;;21.71;83.66
5883;BME280;2967;51.488;6.618;2023-07-20T18:13:38;100990.69;;;21.61;84.00
5883;BME280;2967;51.488;6.618;2023-07-20T18:19:02;100985.81;;;21.56;84.80
5883;BME280;2967;51.488;6.618;2023-07-20T18:24:25;100980.91;;;21.52;85.29
5883;BME280;2967;51.488;6.618;2023-07-20T18:29:49;100986.59;;;21.41;86.36
5883;BME280;2967;51.488;6.618;2023-07-20T18:35:15;100993.13;;;21.30;86.27
5883;BME280;2967;51.488;6.618;2023-07-20T18:40:38;100987.22;;;21.27;85.58
5883;BME280;2967;51.488;6.618;2023-07-20T18:46:02;100988.03;;;21.19;85.86
5883;BME280;2967;51.488;6.618;2023-07-20T18:51:27;100980.78;;;21.12;86.33
5883;BME280;2967;51.488;6.618;2023-07-20T18:56:50;100981.94;;;21.09;85.96
5883;BME280;2967;51.488;6.618;2023-07-20T19:02:14;100990.34;;;21.06;86.77
5883;BME280;2967;51.488;6.618;2023-07-20T19:07:38;100989.44;;;20.98;87.23
5883;BME280;2967;51.488;6.618;2023-07-20T19:13:01;100987.06;;;20.95;86.28
5883;BME280;2967;51.488;6.618;2023-07-20T19:18:24;100987.94;;;20.95;86.56
5883;BME280;2967;51.488;6.618;2023-07-20T19:23:49;100972.88;;;20.85;86.31
5883;BME280;2967;51.488;6.618;2023-07-20T19:29:12;100988.03;;;20.86;86.47
5883;BME280;2967;51.488;6.618;2023-07-20T19:34:36;100992.19;;;20.80;86.49
5883;BME280;2967;51.488;6.618;2023-07-20T19:40:00;100996.72;;;20.80;85.19
5883;BME280;2967;51.488;6.618;2023-07-20T19:45:23;101003.41;;;20.76;84.40
5883;BME280;2967;51.488;6.618;2023-07-20T19:50:47;101006.75;;;20.70;86.01
5883;BME280;2967;51.488;6.618;2023-07-20T19:56:13;101011.78;;;20.73;86.31
5883;BME280;2967;51.488;6.618;2023-07-20T20:01:36;101012.47;;;20.75;85.89
5883;BME280;2967;51.488;6.618;2023-07-20T20:07:02;101025.25;;;20.73;85.30
5883;BME280;2967;51.488;6.618;2023-07-20T20:12:30;101032.84;;;20.77;84.70
5883;BME280;2967;51.488;6.618;2023-07-20T20:17:56;101031.28;;;20.75;84.15
5883;BME280;2967;51.488;6.618;2023-07-20T20:23:21;101042.91;;;20.75;84.58
5883;BME280;2967;51.488;6.618;2023-07-20T20:28:46;101053.81;;;20.74;85.26
5883;BME280;2967;51.488;6.618;2023-07-20T20:34:09;101048.84;;;20.61;87.15
5883;BME280;2967;51.488;6.618;2023-07-20T20:39:32;101038.50;;;20.49;86.84
5883;BME280;2967;51.488;6.618;2023-07-20T20:44:56;101039.44;;;20.40;90.40
5883;BME280;2967;51.488;6.618;2023-07-20T20:50:19;101038.44;;;20.23;93.43
5883;BME280;2967;51.488;6.618;2023-07-20T20:55:42;101038.66;;;19.95;99.01
5883;BME280;2967;51.488;6.618;2023-07-20T21:01:07;101047.81;;;19.84;96.25
5883;BME280;2967;51.488;6.618;2023-07-20T21:06:30;101037.09;;;19.75;98.50
5883;BME280;2967;51.488;6.618;2023-07-20T21:11:53;101027.75;;;19.79;99.77
5883;BME280;2967;51.488;6.618;2023-07-20T21:17:18;101020.16;;;19.74;99.25
5883;BME280;2967;51.488;6.618;2023-07-20T21:22:41;101014.84;;;19.65;97.38
5883;BME280;2967;51.488;6.618;2023-07-20T21:28:05;101025.50;;;19.57;97.97
5883;BME280;2967;51.488;6.618;2023-07-20T21:33:30;101007.91;;;19.45;100.00
5883;BME280;2967;51.488;6.618;2023-07-20T21:38:53;101019.88;;;19.50;100.00
5883;BME280;2967;51.488;6.618;2023-07-20T21:44:18;101017.50;;;19.47;100.00
5883;BME280;2967;51.488;6.618;2023-07-20T21:49:48;101010.75;;;19.43;100.00
5883;BME280;2967;51.488;6.618;2023-07-20T21:55:16;101008.00;;;19.35;100.00
5883;BME280;2967;51.488;6.618;2023-07-20T22:00:40;101007.81;;;19.37;100.00
5883;BME280;2967;51.488;6.618;2023-07-20T22:06:04;101013.38;;;19.26;100.00
5883;BME280;2967;51.488;6.618;2023-07-20T22:11:28;101004.38;;;19.17;100.00
5883;BME280;2967;51.488;6.618;2023-07-20T22:16:54;101000.03;;;19.07;100.00
5883;BME280;2967;51.488;6.618;2023-07-20T22:22:18;101000.53;;;18.93;100.00
5883;BME280;2967;51.488;6.618;2023-07-20T22:27:42;100999.41;;;18.86;100.00
5883;BME280;2967;51.488;6.618;2023-07-20T22:33:05;100993.25;;;18.76;100.00
5883;BME280;2967;51.488;6.618;2023-07-20T22:38:29;100987.00;;;18.85;100.00
5883;BME280;2967;51.488;6.618;2023-07-20T22:43:52;100979.38;;;18.90;100.00
5883;BME280;2967;51.488;6.618;2023-07-20T22:49:15;100981.84;;;18.74;100.00
5883;BME280;2967;51.488;6.618;2023-07-20T22:54:39;100977.47;;;18.64;100.00
5883;BME280;2967;51.488;6.618;2023-07-20T23:00:03;100976.97;;;18.51;100.00
5883;BME280;2967;51.488;6.618;2023-07-20T23:05:30;100984.00;;;18.52;100.00
5883;BME280;2967;51.488;6.618;2023-07-20T23:10:55;100979.84;;;18.30;100.00
5883;BME280;2967;51.488;6.618;2023-07-20T23:16:18;100981.94;;;18.08;100.00
5883;BME280;2967;51.488;6.618;2023-07-20T23:21:41;100980.66;;;18.12;100.00
5883;BME280;2967;51.488;6.618;2023-07-20T23:27:06;100970.41;;;17.98;100.00
5883;BME280;2967;51.488;6.618;2023-07-20T23:32:29;100971.66;;;18.03;100.00
5883;BME280;2967;51.488;6.618;2023-07-20T23:37:52;100967.59;;;17.99;100.00
5883;BME280;2967;51.488;6.618;2023-07-20T23:43:18;100958.97;;;17.86;100.00
5883;BME280;2967;51.488;6.618;2023-07-20T23:48:41;100952.09;;;17.74;100.00
5883;BME280;2967;51.488;6.618;2023-07-20T23:54:04;100949.28;;;17.76;100.00
5883;BME280;2967;51.488;6.618;2023-07-20T23:59:28;100940.69;;;17.72;100.00
